createdAt,value
2022-12-29T00:01:11.975Z,100.00
2022-12-29T00:03:41.752Z,100.00
2022-12-29T00:06:10.207Z,100.00
2022-12-29T00:08:44.195Z,100.00
2022-12-29T00:11:14.682Z,100.00
2022-12-29T00:13:57.155Z,100.00
2022-12-29T00:16:25.684Z,100.00
2022-12-29T00:18:55.491Z,100.00
2022-12-29T00:21:41.554Z,100.00
2022-12-29T00:24:29.933Z,100.00
2022-12-29T00:27:18.403Z,100.00
2022-12-29T00:30:03.937Z,100.00
2022-12-29T00:32:49.812Z,100.00
2022-12-29T00:35:24.921Z,100.00
2022-12-29T00:38:11.559Z,100.00
2022-12-29T00:40:57.044Z,98.52
2022-12-29T00:43:42.734Z,100.00
2022-12-29T00:46:16.009Z,100.00
2022-12-29T00:49:05.771Z,97.22
2022-12-29T00:51:35.448Z,100.00
2022-12-29T00:54:03.873Z,100.00
2022-12-29T00:56:32.259Z,100.00
2022-12-29T00:59:02.611Z,100.00
2022-12-29T01:01:31.207Z,100.00
2022-12-29T01:04:03.778Z,100.00
2022-12-29T01:06:33.513Z,100.00
2022-12-29T01:09:20.672Z,100.00
2022-12-29T01:11:49.237Z,98.13
2022-12-29T01:14:18.006Z,97.91
2022-12-29T01:16:47.155Z,99.09
2022-12-29T01:19:16.188Z,98.57
2022-12-29T01:21:46.966Z,100.00
2022-12-29T01:24:17.535Z,98.39
2022-12-29T01:26:46.463Z,98.06
2022-12-29T01:29:16.231Z,96.39
2022-12-29T01:31:45.233Z,97.61
2022-12-29T01:34:14.220Z,100.00
2022-12-29T01:36:42.656Z,100.00
2022-12-29T01:39:11.041Z,100.00
2022-12-29T01:41:40.934Z,100.00
2022-12-29T01:44:50.958Z,100.00
2022-12-29T01:47:25.441Z,100.00
2022-12-29T01:49:56.016Z,98.93
2022-12-29T01:52:24.306Z,99.72
2022-12-29T01:54:55.072Z,100.00
2022-12-29T01:57:28.181Z,100.00
2022-12-29T01:59:58.892Z,100.00
2022-12-29T02:02:30.204Z,100.00
2022-12-29T02:05:04.702Z,99.94
2022-12-29T02:07:33.583Z,99.35
2022-12-29T02:10:04.055Z,100.00
2022-12-29T02:12:33.797Z,99.53
2022-12-29T02:15:04.695Z,95.33
2022-12-29T02:17:46.557Z,99.76
2022-12-29T02:20:40.187Z,100.00
2022-12-29T02:23:41.200Z,100.00
2022-12-29T02:26:21.524Z,100.00
2022-12-29T02:29:14.265Z,100.00
2022-12-29T02:31:47.843Z,100.00
2022-12-29T02:34:24.454Z,100.00
2022-12-29T02:37:01.639Z,99.71
2022-12-29T02:39:35.666Z,100.00
2022-12-29T02:42:11.166Z,100.00
2022-12-29T02:44:46.787Z,100.00
2022-12-29T02:47:20.389Z,100.00
2022-12-29T02:49:54.663Z,98.45
2022-12-29T02:52:28.682Z,97.20
2022-12-29T02:54:56.255Z,93.76
2022-12-29T02:57:32.960Z,97.18
2022-12-29T03:00:05.253Z,94.80
2022-12-29T03:02:47.225Z,91.76
2022-12-29T03:05:21.570Z,95.84
2022-12-29T03:07:55.176Z,93.90
2022-12-29T03:10:37.745Z,88.96
2022-12-29T03:13:30.792Z,89.57
2022-12-29T03:16:05.194Z,83.88
2022-12-29T03:18:49.856Z,84.17
2022-12-29T03:21:21.957Z,83.02
2022-12-29T03:23:51.175Z,81.92
2022-12-29T03:26:20.605Z,77.01
2022-12-29T03:28:53.451Z,78.71
2022-12-29T03:31:22.406Z,77.31
2022-12-29T03:33:52.694Z,74.72
2022-12-29T03:36:25.857Z,75.42
2022-12-29T03:38:59.462Z,75.91
2022-12-29T03:41:30.937Z,74.27
2022-12-29T03:43:59.174Z,75.57
2022-12-29T03:46:27.460Z,74.67
2022-12-29T03:48:57.113Z,75.98
2022-12-29T03:51:25.476Z,76.64
2022-12-29T03:53:53.745Z,76.74
2022-12-29T03:56:22.097Z,74.89
2022-12-29T03:58:50.448Z,74.18
2022-12-29T04:01:18.834Z,72.14
2022-12-29T04:03:47.375Z,72.54
2022-12-29T04:06:17.221Z,68.42
2022-12-29T04:08:45.540Z,68.82
2022-12-29T04:11:13.920Z,68.79
2022-12-29T04:13:42.706Z,67.53
2022-12-29T04:16:10.986Z,65.77
2022-12-29T04:18:39.277Z,66.85
2022-12-29T04:21:08.145Z,64.53
2022-12-29T04:23:39.139Z,67.10
2022-12-29T04:26:09.957Z,66.16
2022-12-29T04:28:38.719Z,66.13
2022-12-29T04:31:07.631Z,64.15
2022-12-29T04:33:35.933Z,64.73
2022-12-29T04:36:04.805Z,64.58
2022-12-29T04:38:33.076Z,63.43
2022-12-29T04:41:03.120Z,63.55
2022-12-29T04:43:31.526Z,63.92
2022-12-29T04:45:59.925Z,63.49
2022-12-29T04:48:28.312Z,61.49
2022-12-29T04:50:56.672Z,63.34
2022-12-29T04:53:25.093Z,63.63
2022-12-29T04:55:54.504Z,62.46
2022-12-29T04:58:24.391Z,63.58
2022-12-29T05:00:53.159Z,62.44
2022-12-29T05:03:22.859Z,61.66
2022-12-29T05:05:55.592Z,60.68
2022-12-29T05:08:27.978Z,60.24
2022-12-29T05:10:56.964Z,59.77
2022-12-29T05:13:26.703Z,61.52
2022-12-29T05:15:55.486Z,60.72
2022-12-29T05:18:23.995Z,59.16
2022-12-29T05:20:52.512Z,58.97
2022-12-29T05:23:20.754Z,58.75
2022-12-29T05:25:48.999Z,60.13
2022-12-29T05:28:17.263Z,59.71
2022-12-29T05:30:50.376Z,59.95
2022-12-29T05:33:19.132Z,58.12
2022-12-29T05:35:47.467Z,58.76
2022-12-29T05:38:15.778Z,58.11
2022-12-29T05:40:44.995Z,58.28
2022-12-29T05:43:13.240Z,57.98
2022-12-29T05:45:41.420Z,58.52
2022-12-29T05:48:11.035Z,58.61
2022-12-29T05:50:39.278Z,59.18
2022-12-29T05:53:07.582Z,58.54
2022-12-29T05:55:36.488Z,59.47
2022-12-29T05:58:04.735Z,61.10
2022-12-29T06:00:33.014Z,59.12
2022-12-29T06:03:01.780Z,58.31
2022-12-29T06:05:31.520Z,57.18
2022-12-29T06:07:59.777Z,57.61
2022-12-29T06:10:28.376Z,58.81
2022-12-29T06:12:56.709Z,60.19
2022-12-29T06:15:25.020Z,59.34
2022-12-29T06:17:53.215Z,60.18
2022-12-29T06:20:21.440Z,58.80
2022-12-29T06:22:51.096Z,58.29
2022-12-29T06:25:19.391Z,60.24
2022-12-29T06:27:47.654Z,59.65
2022-12-29T06:30:17.176Z,58.05
2022-12-29T06:32:46.746Z,56.52
2022-12-29T06:35:14.913Z,56.12
2022-12-29T06:37:43.090Z,55.92
2022-12-29T06:40:13.749Z,56.09
2022-12-29T06:42:41.885Z,55.70
2022-12-29T06:45:10.837Z,56.85
2022-12-29T06:47:39.054Z,55.76
2022-12-29T06:50:08.031Z,55.74
2022-12-29T06:52:36.743Z,56.70
2022-12-29T06:55:05.852Z,56.16
2022-12-29T06:57:35.897Z,57.06
2022-12-29T07:00:05.875Z,56.29
2022-12-29T07:02:34.358Z,55.34
2022-12-29T07:05:02.722Z,53.66
2022-12-29T07:07:30.998Z,53.53
2022-12-29T07:09:59.269Z,52.72
2022-12-29T07:12:27.560Z,53.45
2022-12-29T07:14:57.171Z,54.10
2022-12-29T07:17:25.514Z,53.18
2022-12-29T07:19:53.878Z,53.61
2022-12-29T07:22:22.484Z,53.29
2022-12-29T07:24:50.762Z,53.26
2022-12-29T07:27:19.062Z,52.17
2022-12-29T07:29:47.311Z,52.74
2022-12-29T07:32:17.058Z,51.92
2022-12-29T07:34:46.300Z,51.09
2022-12-29T07:37:15.061Z,51.04
2022-12-29T07:39:44.057Z,51.58
2022-12-29T07:42:12.503Z,50.55
2022-12-29T07:44:40.910Z,50.10
2022-12-29T07:47:09.193Z,50.01
2022-12-29T07:49:38.825Z,49.77
2022-12-29T07:52:07.172Z,49.61
2022-12-29T07:54:35.456Z,49.77
2022-12-29T07:57:03.712Z,49.21
2022-12-29T07:59:32.162Z,49.33
2022-12-29T08:02:00.521Z,49.57
2022-12-29T08:04:28.883Z,49.48
2022-12-29T08:06:58.526Z,49.62
2022-12-29T08:09:26.918Z,50.17
2022-12-29T08:11:55.831Z,49.31
2022-12-29T08:14:24.044Z,48.77
2022-12-29T08:16:52.400Z,48.25
2022-12-29T08:19:20.698Z,48.58
2022-12-29T08:21:49.022Z,49.44
2022-12-29T08:24:18.742Z,49.57
2022-12-29T08:26:46.961Z,49.76
2022-12-29T08:29:15.206Z,50.05
2022-12-29T08:31:43.905Z,50.35
2022-12-29T08:34:12.181Z,49.10
2022-12-29T08:36:40.580Z,47.95
2022-12-29T08:39:09.019Z,48.24
2022-12-29T08:41:38.646Z,47.90
2022-12-29T08:44:07.186Z,47.32
2022-12-29T08:46:35.512Z,47.61
2022-12-29T08:49:03.856Z,48.38
2022-12-29T08:51:32.300Z,47.81
2022-12-29T08:54:01.206Z,47.14
2022-12-29T08:56:29.652Z,47.00
2022-12-29T08:58:59.564Z,47.31
2022-12-29T09:01:27.943Z,46.69
2022-12-29T09:06:45.521Z,46.14
2022-12-29T09:09:14.078Z,45.83
2022-12-29T09:11:42.989Z,45.33
2022-12-29T09:14:12.632Z,45.06
2022-12-29T09:16:55.265Z,45.22
2022-12-29T09:19:27.882Z,45.22
2022-12-29T09:21:56.086Z,44.73
2022-12-29T09:24:24.269Z,43.51
2022-12-29T09:26:52.621Z,43.48
2022-12-29T09:29:22.418Z,42.37
2022-12-29T09:31:50.784Z,42.69
2022-12-29T09:34:19.085Z,43.37
2022-12-29T09:36:47.311Z,42.66
2022-12-29T09:39:15.576Z,41.93
2022-12-29T09:41:48.779Z,42.33
2022-12-29T09:44:25.212Z,40.52
2022-12-29T09:46:56.080Z,40.36
2022-12-29T09:49:28.232Z,40.19
2022-12-29T09:51:58.644Z,40.34
2022-12-29T09:54:41.428Z,40.49
2022-12-29T09:57:18.095Z,40.12
2022-12-29T09:59:48.793Z,39.76
2022-12-29T10:02:33.524Z,39.05
2022-12-29T10:05:02.222Z,38.71
2022-12-29T10:07:38.948Z,38.67
2022-12-29T10:10:22.783Z,39.64
2022-12-29T10:13:01.726Z,39.01
2022-12-29T10:15:43.137Z,39.27
2022-12-29T10:18:23.090Z,38.15
2022-12-29T10:20:56.119Z,39.14
2022-12-29T10:23:29.685Z,38.62
2022-12-29T10:25:59.586Z,38.21
2022-12-29T10:28:36.568Z,36.83
2022-12-29T10:31:10.321Z,37.56
2022-12-29T10:33:41.720Z,37.49
2022-12-29T10:36:21.363Z,37.08
2022-12-29T10:38:59.505Z,37.22
2022-12-29T10:41:30.605Z,36.80
2022-12-29T10:43:59.434Z,37.32
2022-12-29T10:46:31.657Z,37.24
2022-12-29T10:48:59.940Z,36.79
2022-12-29T10:51:31.558Z,36.89
2022-12-29T10:54:02.808Z,36.08
2022-12-29T10:56:35.177Z,38.60
2022-12-29T10:59:08.700Z,39.78
2022-12-29T11:01:43.287Z,40.12
2022-12-29T11:04:28.193Z,40.24
2022-12-29T11:06:57.434Z,40.59
2022-12-29T11:09:41.553Z,40.34
2022-12-29T11:12:25.347Z,40.20
2022-12-29T11:15:05.334Z,39.84
2022-12-29T11:17:45.718Z,39.51
2022-12-29T11:20:29.751Z,39.70
2022-12-29T11:22:58.169Z,39.84
2022-12-29T11:25:26.444Z,39.84
2022-12-29T11:27:59.227Z,40.31
2022-12-29T11:30:29.572Z,40.13
2022-12-29T11:32:59.942Z,41.88
2022-12-29T11:35:37.285Z,38.45
2022-12-29T11:38:05.926Z,36.96
2022-12-29T11:40:35.221Z,36.77
2022-12-29T11:43:04.668Z,36.72
2022-12-29T11:45:35.758Z,36.32
2022-12-29T11:48:09.323Z,36.90
2022-12-29T11:50:39.736Z,37.80
2022-12-29T11:53:12.207Z,37.53
2022-12-29T11:55:40.469Z,37.96
2022-12-29T11:58:08.877Z,37.63
2022-12-29T12:00:41.309Z,37.36
2022-12-29T12:03:16.046Z,37.18
2022-12-29T12:05:51.366Z,37.82
2022-12-29T12:08:22.343Z,37.40
2022-12-29T12:10:55.120Z,37.02
2022-12-29T12:13:27.993Z,36.63
2022-12-29T12:15:59.468Z,36.75
2022-12-29T12:18:36.328Z,37.07
2022-12-29T12:21:10.625Z,36.80
2022-12-29T12:23:45.763Z,36.82
2022-12-29T12:26:16.058Z,36.18
2022-12-29T12:28:50.705Z,37.44
2022-12-29T12:31:26.316Z,36.46
2022-12-29T12:34:00.948Z,36.82
2022-12-29T12:36:45.682Z,36.84
2022-12-29T12:39:18.417Z,37.15
2022-12-29T12:41:54.429Z,37.18
2022-12-29T12:44:28.680Z,38.52
2022-12-29T12:47:11.329Z,37.93
2022-12-29T12:50:12.815Z,38.27
2022-12-29T12:52:51.893Z,39.52
2022-12-29T12:55:36.696Z,39.73
2022-12-29T12:58:10.838Z,39.29
2022-12-29T13:00:47.592Z,39.61
2022-12-29T13:03:19.768Z,40.52
2022-12-29T13:06:05.386Z,40.16
2022-12-29T13:08:48.227Z,39.64
2022-12-29T13:11:22.974Z,39.29
2022-12-29T13:14:09.832Z,40.26
2022-12-29T13:16:44.047Z,39.14
2022-12-29T13:19:16.593Z,38.85
2022-12-29T13:22:03.798Z,38.73
2022-12-29T13:24:42.613Z,39.41
2022-12-29T13:27:18.463Z,39.75
2022-12-29T13:29:51.317Z,41.48
2022-12-29T13:32:29.421Z,41.34
2022-12-29T13:35:05.491Z,43.11
2022-12-29T13:37:37.167Z,42.06
2022-12-29T13:40:15.513Z,42.60
2022-12-29T13:42:44.591Z,42.80
2022-12-29T13:45:17.019Z,43.90
2022-12-29T13:47:50.135Z,43.35
2022-12-29T13:50:21.262Z,43.94
2022-12-29T13:52:58.090Z,44.04
2022-12-29T13:55:29.743Z,44.83
2022-12-29T13:58:04.321Z,45.61
2022-12-29T14:00:37.766Z,46.67
2022-12-29T14:03:22.811Z,46.97
2022-12-29T14:06:07.314Z,47.25
2022-12-29T14:08:37.679Z,47.73
2022-12-29T14:11:10.353Z,47.44
2022-12-29T14:13:41.678Z,48.54
2022-12-29T14:16:28.774Z,49.78
2022-12-29T14:18:59.464Z,49.51
2022-12-29T14:24:41.878Z,49.24
2022-12-29T14:27:43.447Z,49.50
2022-12-29T14:30:41.430Z,48.25
2022-12-29T14:33:15.681Z,48.90
2022-12-29T14:35:46.898Z,50.38
2022-12-29T14:38:18.958Z,52.33
2022-12-29T14:40:50.104Z,51.21
2022-12-29T14:43:26.047Z,51.72
2022-12-29T14:45:57.922Z,50.86
2022-12-29T14:48:41.468Z,50.31
2022-12-29T14:51:21.010Z,50.57
2022-12-29T14:53:50.942Z,49.97
2022-12-29T14:56:22.196Z,50.06
2022-12-29T14:58:53.101Z,49.64
2022-12-29T15:01:26.037Z,50.56
2022-12-29T15:03:57.214Z,50.56
2022-12-29T15:06:27.161Z,51.64
2022-12-29T15:09:01.075Z,49.46
2022-12-29T15:11:44.274Z,49.93
2022-12-29T15:14:32.587Z,51.89
2022-12-29T15:17:01.206Z,52.42
2022-12-29T15:19:30.257Z,53.25
2022-12-29T15:21:58.970Z,51.31
2022-12-29T15:24:27.293Z,51.59
2022-12-29T15:26:57.218Z,52.41
2022-12-29T15:29:38.731Z,52.03
2022-12-29T15:32:20.923Z,52.25
2022-12-29T15:34:50.628Z,51.46
2022-12-29T15:37:24.125Z,51.16
2022-12-29T15:39:53.221Z,52.56
2022-12-29T15:42:33.372Z,52.24
2022-12-29T15:45:10.929Z,50.82
2022-12-29T15:47:41.175Z,50.62
2022-12-29T15:50:16.459Z,50.85
2022-12-29T15:52:44.898Z,51.18
2022-12-29T15:55:21.996Z,50.84
2022-12-29T15:57:51.585Z,51.90
2022-12-29T16:00:25.746Z,52.07
2022-12-29T16:02:54.722Z,52.53
2022-12-29T16:05:23.162Z,52.62
2022-12-29T16:07:56.125Z,51.39
2022-12-29T16:10:30.236Z,51.24
2022-12-29T16:13:06.447Z,53.00
2022-12-29T16:15:35.057Z,55.56
2022-12-29T16:18:03.375Z,54.59
2022-12-29T16:20:39.710Z,53.58
2022-12-29T16:23:11.198Z,52.54
2022-12-29T16:25:39.539Z,53.88
2022-12-29T16:28:19.262Z,55.09
2022-12-29T16:30:47.829Z,54.69
2022-12-29T16:33:35.202Z,51.87
2022-12-29T16:36:04.588Z,52.02
2022-12-29T16:38:34.291Z,52.29
2022-12-29T16:41:04.148Z,53.53
2022-12-29T16:43:35.853Z,54.11
2022-12-29T16:46:27.288Z,54.01
2022-12-29T16:48:56.597Z,52.88
2022-12-29T16:51:32.692Z,52.78
2022-12-29T16:54:02.061Z,52.28
2022-12-29T16:56:32.889Z,52.34
2022-12-29T16:59:05.818Z,53.07
2022-12-29T17:01:37.561Z,52.43
2022-12-29T17:04:08.804Z,53.67
2022-12-29T17:06:37.055Z,54.71
2022-12-29T17:09:18.388Z,55.37
2022-12-29T17:12:04.980Z,55.39
2022-12-29T17:14:45.441Z,55.22
2022-12-29T17:17:17.833Z,57.97
2022-12-29T17:19:49.270Z,54.89
2022-12-29T17:22:20.067Z,55.04
2022-12-29T17:24:48.342Z,55.58
2022-12-29T17:27:24.808Z,53.64
2022-12-29T17:29:55.980Z,53.90
2022-12-29T17:32:24.487Z,54.28
2022-12-29T17:34:52.797Z,54.15
2022-12-29T17:37:33.202Z,53.91
2022-12-29T17:40:01.718Z,54.52
2022-12-29T17:42:30.329Z,55.28
2022-12-29T17:45:00.336Z,54.07
2022-12-29T17:47:28.620Z,51.57
2022-12-29T17:49:56.933Z,51.56
2022-12-29T17:52:25.303Z,50.86
2022-12-29T17:54:54.262Z,52.72
2022-12-29T17:57:22.738Z,51.45
2022-12-29T17:59:51.246Z,51.53
2022-12-29T18:02:28.124Z,51.92
2022-12-29T18:04:57.033Z,52.48
2022-12-29T18:07:31.132Z,53.77
2022-12-29T18:10:04.259Z,54.17
2022-12-29T18:12:35.126Z,55.09
2022-12-29T18:15:03.456Z,54.01
2022-12-29T18:17:33.258Z,53.50
2022-12-29T18:20:01.514Z,53.66
2022-12-29T18:22:30.284Z,56.23
2022-12-29T18:24:58.522Z,61.18
2022-12-29T18:27:27.637Z,61.18
2022-12-29T18:29:55.984Z,59.63
2022-12-29T18:32:24.323Z,58.57
2022-12-29T18:34:53.918Z,57.52
2022-12-29T18:37:22.286Z,57.39
2022-12-29T18:39:51.369Z,55.69
2022-12-29T18:42:19.625Z,55.36
2022-12-29T18:44:47.860Z,55.92
2022-12-29T18:47:16.162Z,56.83
2022-12-29T18:49:44.565Z,55.47
2022-12-29T18:52:14.905Z,55.60
2022-12-29T18:54:43.161Z,56.38
2022-12-29T18:57:11.531Z,56.02
2022-12-29T18:59:41.067Z,57.08
2022-12-29T19:02:17.621Z,56.88
2022-12-29T19:04:48.919Z,57.66
2022-12-29T19:07:22.458Z,57.04
2022-12-29T19:09:50.728Z,57.99
2022-12-29T19:12:22.263Z,58.25
2022-12-29T19:14:53.599Z,58.52
2022-12-29T19:17:21.923Z,59.28
2022-12-29T19:19:50.177Z,58.65
2022-12-29T19:22:18.507Z,57.64
2022-12-29T19:24:48.286Z,59.28
2022-12-29T19:27:16.533Z,59.62
2022-12-29T19:29:44.899Z,59.40
2022-12-29T19:32:13.361Z,62.57
2022-12-29T19:34:41.911Z,61.47
2022-12-29T19:37:10.208Z,60.82
2022-12-29T19:39:38.537Z,60.09
2022-12-29T19:42:08.388Z,59.27
2022-12-29T19:44:36.819Z,59.59
2022-12-29T19:47:05.318Z,60.11
2022-12-29T19:49:33.703Z,59.58
2022-12-29T19:52:01.995Z,59.81
2022-12-29T19:54:30.313Z,59.22
2022-12-29T19:56:58.705Z,60.38
2022-12-29T19:59:28.928Z,59.63
2022-12-29T20:01:58.603Z,59.83
2022-12-29T20:04:26.952Z,62.53
2022-12-29T20:06:55.212Z,63.45
2022-12-29T20:09:23.681Z,61.00
2022-12-29T20:11:51.965Z,62.46
2022-12-29T20:14:20.273Z,63.92
2022-12-29T20:17:10.076Z,66.67
2022-12-29T20:19:40.107Z,67.13
2022-12-29T20:22:10.180Z,67.88
2022-12-29T20:24:45.191Z,69.23
2022-12-29T20:27:18.494Z,65.97
2022-12-29T20:29:47.030Z,65.27
2022-12-29T20:32:18.417Z,63.82
2022-12-29T20:34:47.758Z,63.58
2022-12-29T20:37:17.194Z,64.13
2022-12-29T20:39:49.541Z,63.19
2022-12-29T20:42:19.100Z,62.35
2022-12-29T20:44:47.968Z,66.76
2022-12-29T20:47:19.564Z,67.58
2022-12-29T20:49:49.015Z,73.91
2022-12-29T20:52:18.170Z,69.51
2022-12-29T20:54:47.381Z,68.29
2022-12-29T20:57:16.419Z,66.99
2022-12-29T20:59:45.745Z,68.75
2022-12-29T21:02:21.938Z,75.13
2022-12-29T21:05:23.392Z,80.48
2022-12-29T21:07:41.854Z,81.64
2022-12-29T21:10:10.211Z,80.59
2022-12-29T21:12:38.569Z,87.55
2022-12-29T21:15:07.897Z,88.89
2022-12-29T21:17:37.815Z,92.19
2022-12-29T21:20:06.746Z,95.38
2022-12-29T21:22:35.002Z,94.91
2022-12-29T21:25:03.311Z,100.00
2022-12-29T21:27:31.576Z,100.00
2022-12-29T21:29:59.896Z,100.00
2022-12-29T21:32:28.316Z,100.00
2022-12-29T21:34:58.041Z,100.00
2022-12-29T21:37:26.423Z,100.00
2022-12-29T21:39:54.804Z,100.00
2022-12-29T21:42:23.175Z,100.00
2022-12-29T21:45:09.127Z,100.00
2022-12-29T21:47:51.303Z,100.00
2022-12-29T21:50:20.995Z,100.00
2022-12-29T21:52:49.386Z,100.00
2022-12-29T21:55:17.990Z,100.00
2022-12-29T21:58:04.098Z,100.00
2022-12-29T22:01:01.609Z,100.00
2022-12-29T22:03:47.707Z,100.00
2022-12-29T22:06:34.806Z,100.00
2022-12-29T22:09:20.721Z,100.00
2022-12-29T22:12:06.875Z,100.00
2022-12-29T22:14:35.267Z,100.00
2022-12-29T22:17:03.702Z,100.00
2022-12-29T22:19:32.240Z,100.00
2022-12-29T22:22:02.359Z,100.00
2022-12-29T22:24:30.732Z,100.00
2022-12-29T22:26:59.099Z,100.00
2022-12-29T22:29:27.513Z,100.00
2022-12-29T22:31:55.858Z,100.00
2022-12-29T22:34:24.467Z,100.00
2022-12-29T22:36:52.780Z,100.00
2022-12-29T22:39:22.503Z,100.00
2022-12-29T22:41:50.992Z,100.00
2022-12-29T22:44:19.367Z,100.00
2022-12-29T22:46:47.742Z,100.00
2022-12-29T22:49:16.153Z,100.00
2022-12-29T22:51:44.477Z,100.00
2022-12-29T22:54:12.773Z,100.00
2022-12-29T22:56:42.857Z,100.00
2022-12-29T22:59:11.862Z,100.00
2022-12-29T23:01:40.732Z,100.00
2022-12-29T23:04:55.704Z,100.00
2022-12-29T23:06:57.749Z,100.00
2022-12-29T23:09:26.066Z,100.00
2022-12-29T23:11:55.710Z,100.00
2022-12-29T23:14:24.408Z,100.00
2022-12-29T23:16:52.595Z,100.00
2022-12-29T23:19:20.904Z,100.00
2022-12-29T23:21:49.271Z,100.00
2022-12-29T23:24:17.593Z,100.00
2022-12-29T23:26:47.333Z,100.00
2022-12-29T23:29:19.415Z,100.00
2022-12-29T23:31:48.349Z,100.00
2022-12-29T23:34:17.528Z,100.00
2022-12-29T23:36:46.162Z,100.00
2022-12-29T23:39:20.701Z,100.00
2022-12-29T23:41:49.027Z,100.00
2022-12-29T23:44:18.793Z,100.00
2022-12-29T23:46:47.226Z,100.00
2022-12-29T23:49:15.658Z,100.00
2022-12-29T23:51:43.998Z,100.00
2022-12-29T23:54:12.347Z,100.00
2022-12-29T23:56:40.661Z,100.00
2022-12-29T23:59:08.945Z,100.00
